Time;durP1;ratioP1;P1;durP2;ratioP2;P2;SDS_P1;SDS_P2;PMS_P1;PMS_P2;Temp;Humidity;BMP_temperature;BMP_pressure;BME280_temperature;BME280_humidity;BME280_pressure;Samples;Min_cycle;Max_cycle;Signal;HPM_P1;HPM_P2
2022/02/10 00:05:52;;;;;;;;;;;1.30;99.90;;;;;;5071468;28;19966;-48
2022/02/10 00:13:20;;;;;;;;;;;1.30;99.90;;;;;;5071010;28;19924;-48
2022/02/10 00:14:36;;;;;;;;;;;1.30;99.90;;;;;;5063486;28;19986;-48
2022/02/10 00:17:12;;;;;;;;;;;1.30;99.90;;;;;;5071453;28;19928;-48
2022/02/10 00:20:06;;;;;;;;;;;1.10;99.90;;;;;;5070664;28;20387;-48
2022/02/10 00:22:44;;;;;;;;;;;1.00;99.90;;;;;;5070092;28;19970;-48
2022/02/10 00:25:45;;;;;;;;;;;1.00;99.90;;;;;;5069178;28;19929;-48
2022/02/10 00:36:25;;;;;;;;;;;0.90;99.90;;;;;;5070246;28;20362;-48
2022/02/10 00:39:01;;;;;;;;;;;0.70;99.90;;;;;;5071086;28;20029;-48
2022/02/10 00:41:28;;;;;;;;;;;0.70;99.90;;;;;;5071027;28;19947;-48
2022/02/10 00:43:56;;;;;;;;;;;0.80;99.90;;;;;;5071923;28;19993;-47
2022/02/10 00:46:23;;;;;;;;;;;0.90;99.90;;;;;;5061442;28;19928;-48
2022/02/10 00:48:50;;;;;;;;;;;1.10;99.90;;;;;;5055558;28;19925;-47
2022/02/10 00:51:17;;;;;;;;;;;1.10;99.90;;;;;;5063933;28;19924;-47
2022/02/10 00:53:45;;;;;;;;;;;1.00;99.90;;;;;;5071680;28;19981;-48
2022/02/10 00:56:14;;;;;;;;;;;1.00;99.90;;;;;;5071818;28;20279;-48
2022/02/10 00:58:44;;;;;;;;;;;1.00;99.90;;;;;;5071637;28;19928;-49
2022/02/10 01:31:16;;;;;;;;;;;0.70;99.90;;;;;;5075477;28;20392;-47
2022/02/10 01:33:45;;;;;;;;;;;0.70;99.90;;;;;;5074561;28;19929;-48
2022/02/10 01:36:12;;;;;;;;;;;0.60;99.90;;;;;;5075131;28;20003;-48
2022/02/10 01:38:39;;;;;;;;;;;0.50;99.90;;;;;;5075171;28;19928;-48
2022/02/10 01:58:06;;;;;;;;;;;0.70;99.90;;;;;;5022271;28;20371;-52
2022/02/10 02:03:24;;;;;;;;;;;0.80;99.90;;;;;;5076577;28;20066;-52
2022/02/10 02:05:57;;;;;;;;;;;0.80;99.90;;;;;;5088200;28;19925;-52
2022/02/10 02:08:26;;;;;;;;;;;0.90;99.90;;;;;;5059693;28;20386;-52
2022/02/10 02:10:53;;;;;;;;;;;0.90;99.90;;;;;;5080160;28;19931;-52
2022/02/10 02:13:23;;;;;;;;;;;0.80;99.90;;;;;;5094493;28;20413;-52
2022/02/10 02:15:50;;;;;;;;;;;0.90;99.90;;;;;;5094446;28;19924;-52
2022/02/10 02:18:17;;;;;;;;;;;0.90;99.90;;;;;;5096226;28;19928;-51
2022/02/10 02:20:46;;;;;;;;;;;0.90;99.90;;;;;;5095307;28;19928;-52
2022/02/10 02:23:14;;;;;;;;;;;1.00;99.90;;;;;;5085960;28;19924;-52
2022/02/10 02:25:41;;;;;;;;;;;1.00;99.90;;;;;;5092560;28;19977;-51
2022/02/10 02:28:10;;;;;;;;;;;1.00;99.90;;;;;;5094192;28;19959;-52
2022/02/10 02:30:41;;;;;;;;;;;1.10;99.90;;;;;;5095831;28;19939;-52
2022/02/10 02:36:15;;;;;;;;;;;0.90;99.90;;;;;;5095844;28;20401;-52
2022/02/10 02:39:02;;;;;;;;;;;0.70;99.90;;;;;;5074170;28;20402;-52
2022/02/10 03:06:19;;;;;;;;;;;0.00;99.90;;;;;;5075463;28;19963;-56
2022/02/10 03:08:49;;;;;;;;;;;0.10;99.90;;;;;;5075151;28;20413;-52
2022/02/10 03:11:18;;;;;;;;;;;0.20;99.90;;;;;;5074990;28;19939;-53
2022/02/10 03:13:49;;;;;;;;;;;0.10;99.90;;;;;;5084280;28;19950;-52
2022/02/10 03:19:01;;;;;;;;;;;0.30;99.90;;;;;;5075051;28;19924;-51
2022/02/10 04:08:15;;;;;;;;;;;1.00;99.90;;;;;;5130801;28;19931;-51
2022/02/10 04:11:05;;;;;;;;;;;0.90;99.90;;;;;;5131025;28;19923;-50
2022/02/10 04:13:40;;;;;;;;;;;1.00;99.90;;;;;;5113910;28;19963;-50
2022/02/10 04:16:14;;;;;;;;;;;1.10;99.90;;;;;;5111793;28;19923;-50
2022/02/10 04:21:48;;;;;;;;;;;1.30;99.90;;;;;;5006433;28;20011;-50
2022/02/10 04:24:39;;;;;;;;;;;1.30;99.90;;;;;;5041568;28;19925;-51
2022/02/10 04:27:12;;;;;;;;;;;1.30;99.90;;;;;;5048237;28;20292;-50
2022/02/10 04:30:06;;;;;;;;;;;1.20;99.90;;;;;;5047331;28;19964;-51
2022/02/10 04:37:26;;;;;;;;;;;1.10;99.90;;;;;;5047009;28;19925;-53
2022/02/10 04:38:41;;;;;;;;;;;1.00;99.90;;;;;;5047529;28;20212;-50
2022/02/10 04:55:31;;;;;;;;;;;0.40;99.90;;;;;;5047841;28;19932;-50
2022/02/10 04:58:20;;;;;;;;;;;0.20;99.90;;;;;;5046956;28;20302;-51
2022/02/10 05:01:05;;;;;;;;;;;0.30;99.90;;;;;;5045358;28;20028;-49
2022/02/10 05:06:57;;;;;;;;;;;0.40;99.90;;;;;;5047330;28;19924;-50
2022/02/10 05:15:16;;;;;;;;;;;0.70;99.90;;;;;;5044928;28;20406;-50
2022/02/10 05:17:55;;;;;;;;;;;0.70;99.90;;;;;;5022990;28;19925;-49
2022/02/10 05:23:20;;;;;;;;;;;0.40;99.90;;;;;;5006436;28;19921;-50
2022/02/10 05:31:50;;;;;;;;;;;0.10;99.90;;;;;;5033767;28;20224;-50
2022/02/10 05:34:15;;;;;;;;;;;0.10;99.90;;;;;;5033658;28;19932;-50
2022/02/10 05:36:44;;;;;;;;;;;0.10;99.90;;;;;;5033518;28;20346;-52
2022/02/10 05:39:15;;;;;;;;;;;-0.10;99.90;;;;;;5034228;28;20316;-50
2022/02/10 05:44:46;;;;;;;;;;;-0.30;99.90;;;;;;5029999;28;19925;-51
2022/02/10 05:50:36;;;;;;;;;;;-0.30;99.90;;;;;;5016397;28;19968;-50
2022/02/10 05:56:04;;;;;;;;;;;-0.40;99.90;;;;;;5032079;28;19921;-50
2022/02/10 05:58:37;;;;;;;;;;;-0.50;99.90;;;;;;5031817;28;19925;-52
2022/02/10 06:50:58;;;;;;;;;;;-0.20;99.90;;;;;;5020605;28;19968;-50
2022/02/10 06:53:34;;;;;;;;;;;-0.20;99.90;;;;;;5031564;28;20015;-50
2022/02/10 07:16:09;;;;;;;;;;;0.20;99.90;;;;;;5030598;28;19929;-51
2022/02/10 07:54:13;;;;;;;;;;;2.80;99.90;;;;;;5031381;28;19928;-50
2022/02/10 07:57:09;;;;;;;;;;;2.80;99.90;;;;;;5030744;28;19925;-52
2022/02/10 08:57:26;;;;;;;;;;;9.10;99.90;;;;;;5029297;28;20283;-51
2022/02/10 09:00:28;;;;;;;;;;;9.10;99.90;;;;;;5034680;28;19925;-49
2022/02/10 09:05:50;;;;;;;;;;;9.70;99.90;;;;;;5034522;28;19936;-49
2022/02/10 09:14:18;;;;;;;;;;;12.40;96.50;;;;;;5034583;28;20326;-49
2022/02/10 09:55:55;;;;;;;;;;;18.00;70.70;;;;;;5035851;28;19931;-52
2022/02/10 09:58:40;;;;;;;;;;;18.60;69.80;;;;;;5052987;28;19932;-51
2022/02/10 10:01:14;;;;;;;;;;;18.90;71.30;;;;;;5031471;28;19929;-51
2022/02/10 10:03:45;;;;;;;;;;;20.00;69.10;;;;;;5033492;28;19931;-51
2022/02/10 10:06:16;;;;;;;;;;;20.10;67.50;;;;;;5032866;28;19932;-52
2022/02/10 10:08:58;;;;;;;;;;;20.80;66.30;;;;;;5032826;28;19926;-50
2022/02/10 10:14:16;;;;;;;;;;;21.50;67.50;;;;;;5033289;28;20305;-51
2022/02/10 10:17:06;;;;;;;;;;;21.10;65.50;;;;;;5033072;28;19987;-50
2022/02/10 10:19:57;;;;;;;;;;;20.70;65.80;;;;;;5075130;23;19956;-53
2022/02/10 10:23:07;;;;;;;;;;;19.40;65.90;;;;;;5072145;28;19924;-52
2022/02/10 10:26:14;;;;;;;;;;;18.40;69.60;;;;;;5072578;28;19994;-53
2022/02/10 10:51:19;;;;;;;;;;;19.80;60.80;;;;;;5052171;28;19974;-50
2022/02/10 10:53:52;;;;;;;;;;;20.10;63.00;;;;;;5051945;28;19924;-52
2022/02/10 10:56:24;;;;;;;;;;;20.00;61.80;;;;;;5051958;28;19998;-51
2022/02/10 10:59:18;;;;;;;;;;;19.60;61.80;;;;;;5051960;28;19925;-52
2022/02/10 11:38:44;;;;;;;;;;;12.40;81.60;;;;;;5054430;28;20405;-51
2022/02/10 11:41:30;;;;;;;;;;;12.40;79.30;;;;;;5057210;28;20287;-53
2022/02/10 13:48:25;;;;;;;;;;;13.40;84.00;;;;;;5125078;27;20016;-52
2022/02/10 14:10:30;;;;;;;;;;;13.10;84.50;;;;;;5121101;27;20009;-54
2022/02/10 14:12:58;;;;;;;;;;;13.10;85.10;;;;;;5129369;27;19930;-54
2022/02/10 14:15:40;;;;;;;;;;;13.10;85.90;;;;;;5119338;27;19924;-53
2022/02/10 14:18:21;;;;;;;;;;;13.10;84.90;;;;;;5117306;27;20320;-52
2022/02/10 14:26:34;;;;;;;;;;;13.20;84.90;;;;;;5133585;27;19946;-54
2022/02/10 14:29:04;;;;;;;;;;;13.10;84.40;;;;;;5133804;27;19928;-53
2022/02/10 14:31:31;;;;;;;;;;;13.00;85.80;;;;;;5147947;27;19988;-52
2022/02/10 14:34:03;;;;;;;;;;;13.00;86.20;;;;;;5154933;27;20308;-53
2022/02/10 14:36:35;;;;;;;;;;;13.20;85.10;;;;;;5138377;27;20308;-51
2022/02/10 14:39:16;;;;;;;;;;;13.10;85.10;;;;;;5112988;28;19995;-52
2022/02/10 15:54:14;;;;;;;;;;;12.50;91.30;;;;;;5172005;27;19976;-53
2022/02/10 15:56:59;;;;;;;;;;;12.40;91.50;;;;;;5171952;27;19929;-53
2022/02/10 16:18:45;;;;;;;;;;;11.40;93.20;;;;;;5136872;27;20007;-51
2022/02/10 16:21:13;;;;;;;;;;;11.20;93.40;;;;;;5150870;27;19982;-53
2022/02/10 16:23:42;;;;;;;;;;;11.00;94.40;;;;;;5144971;27;19927;-52
2022/02/10 16:26:14;;;;;;;;;;;10.80;94.30;;;;;;5148353;27;19968;-53
2022/02/10 16:28:41;;;;;;;;;;;10.80;94.30;;;;;;5146069;27;19923;-53
2022/02/10 16:31:09;;;;;;;;;;;10.70;95.20;;;;;;5145905;27;19930;-52
2022/02/10 16:33:36;;;;;;;;;;;10.60;95.20;;;;;;5151740;27;19927;-52
2022/02/10 16:36:04;;;;;;;;;;;10.40;95.70;;;;;;5151345;27;19930;-53
2022/02/10 16:38:31;;;;;;;;;;;10.30;96.00;;;;;;5151210;27;19923;-53
2022/02/10 16:41:00;;;;;;;;;;;10.20;96.30;;;;;;5151622;27;19977;-53
2022/02/10 16:43:27;;;;;;;;;;;10.20;96.40;;;;;;5151398;27;20351;-52
2022/02/10 16:45:55;;;;;;;;;;;10.20;96.80;;;;;;5151339;27;20393;-53
2022/02/10 16:48:22;;;;;;;;;;;10.10;96.80;;;;;;5151152;27;19930;-53
2022/02/10 16:50:48;;;;;;;;;;;10.00;97.20;;;;;;5151536;27;19927;-52
2022/02/10 16:53:19;;;;;;;;;;;9.80;98.20;;;;;;5151560;27;19931;-53
2022/02/10 16:55:51;;;;;;;;;;;9.80;98.40;;;;;;5150300;27;19969;-53
2022/02/10 16:58:27;;;;;;;;;;;9.70;98.50;;;;;;5130192;28;20010;-52
2022/02/10 17:03:52;;;;;;;;;;;9.50;99.70;;;;;;5136277;27;19927;-52
2022/02/10 17:17:31;;;;;;;;;;;9.20;99.90;;;;;;5104974;27;19930;-52
2022/02/10 17:20:13;;;;;;;;;;;9.10;99.90;;;;;;5136684;27;19929;-52
2022/02/10 17:25:29;;;;;;;;;;;8.90;99.90;;;;;;5137678;27;19925;-52
2022/02/10 17:27:59;;;;;;;;;;;8.60;99.90;;;;;;5138420;27;20022;-53
2022/02/10 17:33:33;;;;;;;;;;;8.30;99.90;;;;;;5073051;28;19947;-52
2022/02/10 17:36:14;;;;;;;;;;;8.30;99.90;;;;;;5072574;28;19924;-54
2022/02/10 17:41:47;;;;;;;;;;;8.00;99.90;;;;;;5120501;27;20437;-52
2022/02/10 17:44:34;;;;;;;;;;;8.10;99.90;;;;;;5136683;27;19946;-52
2022/02/10 17:52:34;;;;;;;;;;;8.30;99.90;;;;;;5084408;28;20012;-53
2022/02/10 17:55:01;;;;;;;;;;;8.20;99.90;;;;;;5133181;27;20359;-51
2022/02/10 17:57:27;;;;;;;;;;;8.20;99.90;;;;;;5136141;27;19923;-52
2022/02/10 17:59:54;;;;;;;;;;;7.90;99.90;;;;;;5135665;27;19924;-52
2022/02/10 18:02:22;;;;;;;;;;;7.90;99.90;;;;;;5135899;27;19976;-53
2022/02/10 18:04:50;;;;;;;;;;;7.90;99.90;;;;;;5135640;27;19977;-52
2022/02/10 18:07:16;;;;;;;;;;;7.90;99.90;;;;;;5134873;27;19973;-52
2022/02/10 18:13:20;;;;;;;;;;;7.80;99.90;;;;;;5071897;28;19920;-52
2022/02/10 18:15:52;;;;;;;;;;;7.80;99.90;;;;;;5052603;28;20009;-52
2022/02/10 18:18:25;;;;;;;;;;;7.80;99.90;;;;;;5098431;27;19930;-53
2022/02/10 18:20:58;;;;;;;;;;;7.70;99.90;;;;;;5135141;27;19923;-53
2022/02/10 18:23:32;;;;;;;;;;;7.70;99.90;;;;;;5135675;27;20389;-51
2022/02/10 18:26:04;;;;;;;;;;;7.60;99.90;;;;;;5127820;27;19923;-52
2022/02/10 18:28:50;;;;;;;;;;;7.50;99.90;;;;;;5114845;28;20014;-52
2022/02/10 18:34:38;;;;;;;;;;;7.50;99.90;;;;;;5115162;28;19965;-52
2022/02/10 19:01:58;;;;;;;;;;;8.10;99.90;;;;;;5134678;27;20015;-52
2022/02/10 19:07:34;;;;;;;;;;;8.20;99.90;;;;;;5133650;27;19919;-52
2022/02/10 19:10:02;;;;;;;;;;;8.10;99.90;;;;;;5118750;27;19979;-51
2022/02/10 19:12:32;;;;;;;;;;;8.10;99.90;;;;;;5128823;27;20010;-51
2022/02/10 19:15:08;;;;;;;;;;;8.20;99.90;;;;;;5123743;27;19931;-52
2022/02/10 19:17:36;;;;;;;;;;;8.20;99.90;;;;;;5125586;27;19924;-53
2022/02/10 19:20:03;;;;;;;;;;;8.10;99.90;;;;;;5114019;28;20393;-53
2022/02/10 19:22:32;;;;;;;;;;;8.00;99.90;;;;;;5127905;27;20540;-52
2022/02/10 19:24:58;;;;;;;;;;;8.10;99.90;;;;;;5134624;27;19984;-52
2022/02/10 19:27:25;;;;;;;;;;;8.20;99.90;;;;;;5134539;27;19923;-51
2022/02/10 19:29:57;;;;;;;;;;;8.30;99.90;;;;;;5133344;27;19976;-51
2022/02/10 19:32:26;;;;;;;;;;;8.30;99.90;;;;;;5134559;27;19931;-52
2022/02/10 19:34:55;;;;;;;;;;;8.20;99.90;;;;;;5132693;27;19932;-51
2022/02/10 19:37:22;;;;;;;;;;;8.20;99.90;;;;;;5121087;27;20389;-50
2022/02/10 19:39:54;;;;;;;;;;;8.10;99.90;;;;;;5129262;27;19924;-52
2022/02/10 19:42:21;;;;;;;;;;;8.10;99.90;;;;;;5114056;28;19924;-51
2022/02/10 19:44:48;;;;;;;;;;;8.00;99.90;;;;;;5119756;27;19977;-51
2022/02/10 19:47:15;;;;;;;;;;;8.00;99.90;;;;;;5134202;27;20389;-50
2022/02/10 19:49:43;;;;;;;;;;;7.80;99.90;;;;;;5133107;28;19976;-51
2022/02/10 19:52:11;;;;;;;;;;;7.80;99.90;;;;;;5134526;28;19927;-53
2022/02/10 19:54:45;;;;;;;;;;;8.10;99.90;;;;;;5131378;28;19974;-51
2022/02/10 19:57:13;;;;;;;;;;;8.00;99.90;;;;;;5131112;28;19937;-52
2022/02/10 19:59:40;;;;;;;;;;;7.80;99.90;;;;;;5129349;28;19928;-50
2022/02/10 20:02:07;;;;;;;;;;;7.70;99.90;;;;;;5130253;28;19987;-52
2022/02/10 20:04:34;;;;;;;;;;;7.70;99.90;;;;;;5133058;28;19973;-51
2022/02/10 20:07:01;;;;;;;;;;;7.70;99.90;;;;;;5128256;28;19977;-52
2022/02/10 20:09:27;;;;;;;;;;;7.70;99.90;;;;;;5134360;28;19931;-51
2022/02/10 20:11:54;;;;;;;;;;;7.60;99.90;;;;;;5135858;28;19928;-50
2022/02/10 20:14:23;;;;;;;;;;;7.50;99.90;;;;;;5135263;28;19945;-51
2022/02/10 20:16:50;;;;;;;;;;;7.50;99.90;;;;;;5134962;28;19923;-51
2022/02/10 20:19:17;;;;;;;;;;;7.40;99.90;;;;;;5132626;27;20182;-50
2022/02/10 20:21:44;;;;;;;;;;;7.70;99.90;;;;;;5124960;28;19924;-51
2022/02/10 20:24:11;;;;;;;;;;;7.80;99.90;;;;;;5133267;28;19968;-51
2022/02/10 20:26:38;;;;;;;;;;;7.70;99.90;;;;;;5123310;28;19924;-52
2022/02/10 20:29:05;;;;;;;;;;;7.50;99.90;;;;;;5133689;27;19968;-52
2022/02/10 20:31:36;;;;;;;;;;;7.30;99.90;;;;;;5133974;28;19969;-52
2022/02/10 20:34:03;;;;;;;;;;;7.20;99.90;;;;;;5133866;28;19923;-52
2022/02/10 20:36:30;;;;;;;;;;;7.20;99.90;;;;;;5136162;27;19969;-52
2022/02/10 20:38:59;;;;;;;;;;;7.20;99.90;;;;;;5134193;27;19927;-52
2022/02/10 20:41:30;;;;;;;;;;;7.10;99.90;;;;;;5117569;28;19967;-51
2022/02/10 20:43:59;;;;;;;;;;;7.00;99.90;;;;;;5118668;27;19964;-52
2022/02/10 20:55:36;;;;;;;;;;;6.70;99.90;;;;;;5117267;27;19918;-52
2022/02/10 20:58:03;;;;;;;;;;;6.70;99.90;;;;;;5129784;27;19923;-54
2022/02/10 21:00:32;;;;;;;;;;;6.70;99.90;;;;;;5137363;27;19931;-52
2022/02/10 21:02:58;;;;;;;;;;;6.70;99.90;;;;;;5137677;27;19923;-52
2022/02/10 21:05:34;;;;;;;;;;;6.90;99.90;;;;;;5137419;27;19992;-52
2022/02/10 21:08:08;;;;;;;;;;;7.00;99.90;;;;;;5119479;27;19973;-51
2022/02/10 21:10:38;;;;;;;;;;;7.00;99.90;;;;;;5134816;27;20384;-52
2022/02/10 21:13:09;;;;;;;;;;;7.00;99.90;;;;;;5134401;27;19927;-52
2022/02/10 21:15:41;;;;;;;;;;;7.10;99.90;;;;;;5136254;27;20277;-52
2022/02/10 21:18:08;;;;;;;;;;;7.10;99.90;;;;;;5136690;27;19927;-53
2022/02/10 21:20:36;;;;;;;;;;;7.10;99.90;;;;;;5136669;27;19923;-53
2022/02/10 21:23:12;;;;;;;;;;;7.20;99.90;;;;;;5136454;27;19930;-53
2022/02/10 21:25:41;;;;;;;;;;;7.20;99.90;;;;;;5134900;27;19945;-53
2022/02/10 21:28:15;;;;;;;;;;;7.20;99.90;;;;;;5136470;27;19923;-53
2022/02/10 21:30:42;;;;;;;;;;;7.20;99.90;;;;;;5135320;27;20016;-53
2022/02/10 21:33:15;;;;;;;;;;;7.20;99.90;;;;;;5136715;27;19924;-52
2022/02/10 21:36:06;;;;;;;;;;;7.20;99.90;;;;;;5136364;27;19975;-52
2022/02/10 21:38:33;;;;;;;;;;;7.20;99.90;;;;;;5135314;27;19923;-53
2022/02/10 21:41:30;;;;;;;;;;;7.20;99.90;;;;;;5135543;27;20014;-53
2022/02/10 21:52:50;;;;;;;;;;;7.20;99.90;;;;;;5135267;27;19946;-53
2022/02/10 21:55:41;;;;;;;;;;;7.20;99.90;;;;;;5135271;27;20335;-53
2022/02/10 22:04:08;;;;;;;;;;;7.00;99.90;;;;;;5082732;27;19920;-53
2022/02/10 22:09:26;;;;;;;;;;;7.20;99.90;;;;;;5131506;27;20324;-52
2022/02/10 22:17:56;;;;;;;;;;;7.50;99.90;;;;;;5135864;27;19935;-52
2022/02/10 22:20:30;;;;;;;;;;;7.40;99.90;;;;;;5131671;22;19924;-50
2022/02/10 22:23:03;;;;;;;;;;;7.40;99.90;;;;;;5072206;28;19924;-51
2022/02/10 22:25:30;;;;;;;;;;;7.30;99.90;;;;;;5072835;28;19931;-47
2022/02/10 22:28:04;;;;;;;;;;;7.20;99.90;;;;;;5072497;28;20398;-48
2022/02/10 22:30:44;;;;;;;;;;;6.90;99.90;;;;;;5065169;28;19931;-49
2022/02/10 22:33:21;;;;;;;;;;;6.80;99.90;;;;;;5052316;28;19968;-48
2022/02/10 22:35:50;;;;;;;;;;;6.90;99.90;;;;;;5051557;28;19924;-48
2022/02/10 22:38:21;;;;;;;;;;;6.90;99.90;;;;;;5051975;28;19925;-48
2022/02/10 22:41:00;;;;;;;;;;;6.90;99.90;;;;;;5051255;28;20326;-49
2022/02/10 22:43:27;;;;;;;;;;;6.80;99.90;;;;;;5052564;28;20306;-49
2022/02/10 22:45:55;;;;;;;;;;;6.90;99.90;;;;;;5052508;28;20429;-49
2022/02/10 22:48:25;;;;;;;;;;;6.90;99.90;;;;;;5052346;28;19979;-49
2022/02/10 22:50:52;;;;;;;;;;;6.70;99.90;;;;;;5052048;28;20163;-49
2022/02/10 22:53:19;;;;;;;;;;;6.70;99.90;;;;;;5051647;28;20318;-49
2022/02/10 22:55:45;;;;;;;;;;;6.80;99.90;;;;;;5052149;28;19924;-51
2022/02/10 22:58:12;;;;;;;;;;;6.80;99.90;;;;;;5050979;28;19925;-49
2022/02/10 23:00:46;;;;;;;;;;;6.80;99.90;;;;;;5051255;28;19929;-48
2022/02/10 23:03:15;;;;;;;;;;;6.60;99.90;;;;;;5052055;28;20016;-49
2022/02/10 23:05:42;;;;;;;;;;;6.30;99.90;;;;;;5051995;28;19925;-49
2022/02/10 23:08:09;;;;;;;;;;;6.30;99.90;;;;;;5048027;28;19929;-49
2022/02/10 23:10:43;;;;;;;;;;;6.10;99.90;;;;;;5049902;28;19925;-49
2022/02/10 23:13:09;;;;;;;;;;;6.20;99.90;;;;;;5051535;28;19964;-49
2022/02/10 23:15:37;;;;;;;;;;;6.10;99.90;;;;;;5050605;28;19924;-49
2022/02/10 23:18:05;;;;;;;;;;;6.20;99.90;;;;;;5049490;28;19979;-49
2022/02/10 23:20:34;;;;;;;;;;;6.20;99.90;;;;;;5051285;28;19929;-49
2022/02/10 23:23:00;;;;;;;;;;;6.20;99.90;;;;;;5050558;28;19929;-49
2022/02/10 23:25:27;;;;;;;;;;;6.30;99.90;;;;;;5043426;28;20002;-48
2022/02/10 23:27:54;;;;;;;;;;;6.30;99.90;;;;;;5045357;28;19929;-48
2022/02/10 23:30:22;;;;;;;;;;;6.30;99.90;;;;;;5051564;28;20546;-49
2022/02/10 23:32:49;;;;;;;;;;;6.30;99.90;;;;;;5051314;28;19994;-48
2022/02/10 23:35:46;;;;;;;;;;;6.30;99.90;;;;;;5051983;28;19925;-49
2022/02/10 23:38:04;;;;;;;;;;;6.30;99.90;;;;;;5049482;28;19929;-48
2022/02/10 23:40:33;;;;;;;;;;;6.40;99.90;;;;;;5047800;28;20616;-48
2022/02/10 23:42:59;;;;;;;;;;;6.50;99.90;;;;;;5051399;28;19961;-48
2022/02/10 23:45:28;;;;;;;;;;;6.50;99.90;;;;;;5051532;28;19924;-48
2022/02/10 23:47:55;;;;;;;;;;;6.60;99.90;;;;;;5051263;28;20421;-48
2022/02/10 23:50:26;;;;;;;;;;;6.70;99.90;;;;;;5051396;28;19924;-47
2022/02/10 23:52:55;;;;;;;;;;;6.70;99.90;;;;;;5051338;28;19947;-48
2022/02/10 23:55:31;;;;;;;;;;;6.70;99.90;;;;;;5051487;28;19925;-49
2022/02/10 23:58:06;;;;;;;;;;;6.80;99.90;;;;;;5051010;28;19933;-49
